Time;durP1;ratioP1;P1;durP2;ratioP2;P2;SDS_P1;SDS_P2;PMS_P1;PMS_P2;Temp;Humidity;BMP_temperature;BMP_pressure;BME280_temperature;BME280_humidity;BME280_pressure;Samples;Min_cycle;Max_cycle;Signal;HPM_P1;HPM_P2
2024/01/06 00:01:50;;;;;;;;;;;7.20;99.90;;;;;;5052763;28;19921;-74
2024/01/06 00:04:18;;;;;;;;;;;7.20;99.90;;;;;;5048135;28;19921;-71
2024/01/06 00:06:46;;;;;;;;;;;7.20;99.90;;;;;;5051686;28;19975;-71
2024/01/06 00:09:14;;;;;;;;;;;7.20;99.90;;;;;;5050939;28;19990;-73
2024/01/06 00:11:43;;;;;;;;;;;7.30;99.90;;;;;;5032218;28;19921;-71
2024/01/06 00:14:11;;;;;;;;;;;7.40;99.90;;;;;;5051031;28;19927;-71
2024/01/06 00:16:39;;;;;;;;;;;7.40;99.90;;;;;;5033798;28;19921;-72
2024/01/06 00:19:07;;;;;;;;;;;7.20;99.90;;;;;;5030804;28;19928;-71
2024/01/06 00:21:35;;;;;;;;;;;7.20;99.90;;;;;;5034104;28;19956;-71
2024/01/06 00:24:03;;;;;;;;;;;7.10;99.90;;;;;;5031768;28;19927;-71
2024/01/06 00:26:31;;;;;;;;;;;7.00;99.90;;;;;;5032867;28;19920;-72
2024/01/06 00:29:00;;;;;;;;;;;6.90;99.90;;;;;;5050481;28;19921;-72
2024/01/06 00:31:28;;;;;;;;;;;6.90;99.90;;;;;;5050333;28;19920;-72
2024/01/06 00:33:57;;;;;;;;;;;6.90;99.90;;;;;;5050313;28;19931;-72
2024/01/06 00:36:25;;;;;;;;;;;6.60;99.90;;;;;;5042978;28;20353;-71
2024/01/06 00:38:53;;;;;;;;;;;6.50;99.90;;;;;;5041798;28;20361;-71
2024/01/06 00:41:21;;;;;;;;;;;6.30;99.90;;;;;;5032101;28;19982;-68
2024/01/06 00:43:49;;;;;;;;;;;6.30;99.90;;;;;;5052987;28;19926;-71
2024/01/06 00:46:18;;;;;;;;;;;6.20;99.90;;;;;;5036259;28;20380;-70
2024/01/06 00:48:46;;;;;;;;;;;6.20;99.90;;;;;;5054084;28;19921;-72
2024/01/06 00:51:14;;;;;;;;;;;6.20;99.90;;;;;;5031100;28;20307;-71
2024/01/06 00:53:42;;;;;;;;;;;6.10;99.90;;;;;;5050934;28;19921;-70
2024/01/06 00:56:10;;;;;;;;;;;6.20;99.90;;;;;;5036070;28;19921;-70
2024/01/06 00:58:38;;;;;;;;;;;6.10;99.90;;;;;;5035958;28;19920;-71
2024/01/06 01:01:06;;;;;;;;;;;6.10;99.90;;;;;;5053469;28;19924;-71
2024/01/06 01:03:35;;;;;;;;;;;6.20;99.90;;;;;;5035674;28;20021;-72
2024/01/06 01:06:03;;;;;;;;;;;6.50;99.90;;;;;;5043971;28;20391;-72
2024/01/06 01:08:31;;;;;;;;;;;6.40;99.90;;;;;;5053603;28;20402;-73
2024/01/06 01:10:59;;;;;;;;;;;6.40;99.90;;;;;;5035034;28;20007;-72
2024/01/06 01:13:27;;;;;;;;;;;6.50;99.90;;;;;;5049249;28;20347;-71
2024/01/06 01:15:55;;;;;;;;;;;6.40;99.90;;;;;;5052706;28;19985;-72
2024/01/06 01:18:23;;;;;;;;;;;6.40;99.90;;;;;;5042206;28;19928;-71
2024/01/06 01:20:53;;;;;;;;;;;6.40;99.90;;;;;;5028672;28;20434;-72
2024/01/06 01:23:21;;;;;;;;;;;6.50;99.90;;;;;;5053483;28;19920;-71
2024/01/06 01:25:49;;;;;;;;;;;6.50;99.90;;;;;;5036905;28;19947;-71
2024/01/06 01:28:17;;;;;;;;;;;6.50;99.90;;;;;;5060428;28;20007;-71
2024/01/06 01:30:45;;;;;;;;;;;6.60;99.90;;;;;;5060992;28;19920;-71
2024/01/06 01:33:13;;;;;;;;;;;6.70;99.90;;;;;;5027564;28;19920;-71
2024/01/06 01:35:41;;;;;;;;;;;6.60;99.90;;;;;;5032129;28;20445;-70
2024/01/06 01:38:10;;;;;;;;;;;6.50;99.90;;;;;;5049578;28;20031;-71
2024/01/06 01:40:38;;;;;;;;;;;6.40;99.90;;;;;;5048874;28;19925;-71
2024/01/06 01:43:06;;;;;;;;;;;6.30;99.90;;;;;;5027020;28;20009;-71
2024/01/06 01:45:36;;;;;;;;;;;6.20;99.90;;;;;;5035507;28;20363;-71
2024/01/06 01:48:04;;;;;;;;;;;6.20;99.90;;;;;;5035148;28;19925;-72
2024/01/06 01:50:33;;;;;;;;;;;6.10;99.90;;;;;;5034218;28;19920;-71
2024/01/06 01:53:01;;;;;;;;;;;6.10;99.90;;;;;;5034730;28;19921;-71
2024/01/06 01:55:30;;;;;;;;;;;6.10;99.90;;;;;;5051703;28;20351;-71
2024/01/06 01:57:58;;;;;;;;;;;6.00;99.90;;;;;;5053049;28;20007;-72
2024/01/06 02:00:26;;;;;;;;;;;5.90;99.90;;;;;;5052140;28;20023;-72
2024/01/06 02:02:54;;;;;;;;;;;5.90;99.90;;;;;;5034758;28;20441;-71
2024/01/06 02:05:22;;;;;;;;;;;5.90;99.90;;;;;;5052684;28;20047;-72
2024/01/06 02:07:51;;;;;;;;;;;5.90;99.90;;;;;;5052303;28;19920;-72
2024/01/06 02:10:19;;;;;;;;;;;5.90;99.90;;;;;;5051016;28;20426;-72
2024/01/06 02:12:48;;;;;;;;;;;5.80;99.90;;;;;;5051547;28;19929;-72
2024/01/06 02:15:17;;;;;;;;;;;5.80;99.90;;;;;;5051273;28;19920;-72
2024/01/06 02:17:44;;;;;;;;;;;5.80;99.90;;;;;;5051849;28;20008;-73
2024/01/06 02:20:13;;;;;;;;;;;5.80;99.90;;;;;;5050902;28;19931;-72
2024/01/06 02:22:43;;;;;;;;;;;5.80;99.90;;;;;;5051585;28;20310;-72
2024/01/06 02:25:12;;;;;;;;;;;5.80;99.90;;;;;;5059581;28;19927;-71
2024/01/06 02:27:40;;;;;;;;;;;5.70;99.90;;;;;;5049919;28;19920;-72
2024/01/06 02:30:08;;;;;;;;;;;5.70;99.90;;;;;;5031241;28;20083;-71
2024/01/06 02:32:36;;;;;;;;;;;5.70;99.90;;;;;;5033526;28;19971;-71
2024/01/06 02:35:05;;;;;;;;;;;5.80;99.90;;;;;;5050698;28;20471;-72
2024/01/06 02:37:33;;;;;;;;;;;5.80;99.90;;;;;;5051241;28;20379;-72
2024/01/06 02:40:02;;;;;;;;;;;5.80;99.90;;;;;;5050509;28;19952;-72
2024/01/06 02:42:30;;;;;;;;;;;5.90;99.90;;;;;;5049518;28;19933;-71
2024/01/06 02:44:58;;;;;;;;;;;6.10;99.90;;;;;;5050686;28;20011;-71
2024/01/06 02:47:26;;;;;;;;;;;6.10;99.90;;;;;;5033353;28;19927;-71
2024/01/06 02:49:54;;;;;;;;;;;6.10;99.90;;;;;;5050250;28;20355;-71
2024/01/06 02:52:22;;;;;;;;;;;6.10;99.90;;;;;;5028743;28;19921;-72
2024/01/06 02:54:50;;;;;;;;;;;6.00;99.90;;;;;;5064816;28;19927;-72
2024/01/06 02:57:20;;;;;;;;;;;6.00;99.90;;;;;;5051116;28;19964;-72
2024/01/06 02:59:48;;;;;;;;;;;6.00;99.90;;;;;;5048671;28;20351;-72
2024/01/06 03:02:16;;;;;;;;;;;6.10;99.90;;;;;;5029763;28;19971;-72
2024/01/06 03:04:44;;;;;;;;;;;6.10;99.90;;;;;;5022520;28;19925;-72
2024/01/06 03:07:11;;;;;;;;;;;6.10;99.90;;;;;;5051073;28;20372;-72
2024/01/06 03:09:39;;;;;;;;;;;6.10;99.90;;;;;;4991560;28;1094572;-74
2024/01/06 03:12:08;;;;;;;;;;;6.20;99.90;;;;;;5024089;28;19968;-72
2024/01/06 03:14:37;;;;;;;;;;;6.20;99.90;;;;;;5030257;28;19960;-73
2024/01/06 03:17:05;;;;;;;;;;;6.30;99.90;;;;;;5031386;28;20302;-72
2024/01/06 03:19:33;;;;;;;;;;;6.40;99.90;;;;;;5030725;28;20004;-72
2024/01/06 03:22:01;;;;;;;;;;;6.30;99.90;;;;;;5023496;28;19932;-71
2024/01/06 03:24:30;;;;;;;;;;;6.30;99.90;;;;;;5031263;28;19923;-71
2024/01/06 03:26:58;;;;;;;;;;;6.40;99.90;;;;;;5031360;28;20028;-73
2024/01/06 03:29:26;;;;;;;;;;;6.40;99.90;;;;;;5030242;28;20371;-70
2024/01/06 03:31:55;;;;;;;;;;;6.30;99.90;;;;;;5031360;28;19928;-72
2024/01/06 03:34:23;;;;;;;;;;;6.40;99.90;;;;;;5029821;28;19928;-72
2024/01/06 03:36:51;;;;;;;;;;;6.40;99.90;;;;;;5023820;28;19972;-75
2024/01/06 03:39:19;;;;;;;;;;;6.40;99.90;;;;;;5029822;28;19921;-71
2024/01/06 03:41:50;;;;;;;;;;;6.50;99.90;;;;;;5030695;28;20015;-71
2024/01/06 03:44:17;;;;;;;;;;;6.50;99.90;;;;;;5030951;28;19921;-72
2024/01/06 03:46:45;;;;;;;;;;;6.40;99.90;;;;;;5031387;28;20028;-74
2024/01/06 03:49:14;;;;;;;;;;;6.50;99.90;;;;;;5031260;28;20252;-71
2024/01/06 03:51:43;;;;;;;;;;;6.60;99.90;;;;;;5028604;28;19948;-72
2024/01/06 03:54:11;;;;;;;;;;;6.70;99.90;;;;;;5027369;28;19956;-72
2024/01/06 03:56:39;;;;;;;;;;;6.80;99.90;;;;;;5025649;28;20299;-72
2024/01/06 03:59:07;;;;;;;;;;;6.90;99.90;;;;;;5029697;28;19947;-72
2024/01/06 04:01:35;;;;;;;;;;;6.80;99.90;;;;;;5025021;28;19921;-72
2024/01/06 04:04:04;;;;;;;;;;;6.80;99.90;;;;;;5030937;28;20388;-72
2024/01/06 04:06:33;;;;;;;;;;;6.90;99.90;;;;;;5030465;28;20208;-72
2024/01/06 04:09:02;;;;;;;;;;;7.00;99.90;;;;;;5030763;28;19929;-72
2024/01/06 04:11:30;;;;;;;;;;;7.10;99.90;;;;;;5049963;28;19964;-72
2024/01/06 04:13:58;;;;;;;;;;;7.20;99.90;;;;;;5050826;28;19921;-70
2024/01/06 04:16:26;;;;;;;;;;;7.30;99.90;;;;;;5050980;28;19920;-72
2024/01/06 04:18:54;;;;;;;;;;;7.30;99.90;;;;;;5037447;28;19956;-72
2024/01/06 04:21:22;;;;;;;;;;;7.40;99.90;;;;;;5053973;28;19924;-73
2024/01/06 04:23:52;;;;;;;;;;;7.00;99.90;;;;;;5054732;28;19928;-73
2024/01/06 04:26:20;;;;;;;;;;;6.90;99.90;;;;;;5054468;28;19920;-73
2024/01/06 04:28:48;;;;;;;;;;;6.90;99.90;;;;;;5054574;28;19928;-73
2024/01/06 04:31:16;;;;;;;;;;;6.80;99.90;;;;;;5053930;28;19931;-74
2024/01/06 04:33:43;;;;;;;;;;;6.60;99.90;;;;;;5036607;28;19927;-72
2024/01/06 04:36:12;;;;;;;;;;;6.20;99.90;;;;;;5034980;28;19938;-71
2024/01/06 04:38:40;;;;;;;;;;;6.00;99.90;;;;;;5054395;28;19921;-71
2024/01/06 04:41:09;;;;;;;;;;;6.00;99.90;;;;;;5053750;28;19920;-71
2024/01/06 04:43:37;;;;;;;;;;;6.00;99.90;;;;;;5054608;28;19925;-70
2024/01/06 04:46:05;;;;;;;;;;;5.80;99.90;;;;;;5054319;28;19927;-71
2024/01/06 04:48:33;;;;;;;;;;;5.70;99.90;;;;;;5036419;28;19947;-71
2024/01/06 04:51:03;;;;;;;;;;;5.70;99.90;;;;;;5053170;28;19974;-72
2024/01/06 04:53:31;;;;;;;;;;;5.70;99.90;;;;;;5046398;28;19925;-69
2024/01/06 04:55:59;;;;;;;;;;;5.70;99.90;;;;;;5028574;28;19921;-74
2024/01/06 04:58:28;;;;;;;;;;;5.90;99.90;;;;;;5046685;28;19974;-71
2024/01/06 05:00:56;;;;;;;;;;;5.80;99.90;;;;;;5027960;28;19921;-71
2024/01/06 05:03:24;;;;;;;;;;;5.80;99.90;;;;;;5050830;28;19921;-71
2024/01/06 05:05:52;;;;;;;;;;;6.10;99.90;;;;;;5038465;28;20281;-71
2024/01/06 05:08:22;;;;;;;;;;;6.40;99.90;;;;;;5051020;28;20011;-71
2024/01/06 05:10:50;;;;;;;;;;;6.60;99.90;;;;;;5056850;28;20023;-74
2024/01/06 05:13:18;;;;;;;;;;;6.90;99.90;;;;;;5062247;28;19947;-74
2024/01/06 05:15:47;;;;;;;;;;;7.10;99.90;;;;;;5061668;28;20307;-71
2024/01/06 05:18:15;;;;;;;;;;;7.20;99.90;;;;;;5056344;28;20018;-72
2024/01/06 05:20:43;;;;;;;;;;;7.30;99.90;;;;;;5051672;28;19932;-71
2024/01/06 05:23:11;;;;;;;;;;;7.30;99.90;;;;;;5053969;28;19920;-71
2024/01/06 05:25:39;;;;;;;;;;;7.20;99.90;;;;;;5045920;28;19956;-72
2024/01/06 05:28:07;;;;;;;;;;;7.10;99.90;;;;;;5053575;28;20299;-72
2024/01/06 05:30:34;;;;;;;;;;;7.00;99.90;;;;;;5060123;28;20314;-72
2024/01/06 05:33:04;;;;;;;;;;;6.70;99.90;;;;;;5027445;28;20453;-71
2024/01/06 05:35:32;;;;;;;;;;;6.60;99.90;;;;;;5041863;28;19928;-72
2024/01/06 05:38:01;;;;;;;;;;;6.40;99.90;;;;;;5039922;28;19924;-72
2024/01/06 05:40:29;;;;;;;;;;;6.30;99.90;;;;;;5044682;28;19990;-70
2024/01/06 05:42:57;;;;;;;;;;;6.40;99.90;;;;;;5039759;28;19925;-71
2024/01/06 05:45:25;;;;;;;;;;;6.50;99.90;;;;;;5053236;28;20391;-71
2024/01/06 05:47:57;;;;;;;;;;;6.50;99.90;;;;;;5027441;28;19921;-71
2024/01/06 05:50:27;;;;;;;;;;;6.40;99.90;;;;;;5049311;28;19921;-71
2024/01/06 05:52:54;;;;;;;;;;;6.50;99.90;;;;;;5030519;28;20019;-72
2024/01/06 05:55:24;;;;;;;;;;;6.60;99.90;;;;;;5061013;28;19927;-74
2024/01/06 05:57:52;;;;;;;;;;;6.70;99.90;;;;;;5035338;28;19970;-74
2024/01/06 06:00:20;;;;;;;;;;;6.90;99.90;;;;;;5050399;28;20376;-74
2024/01/06 06:02:48;;;;;;;;;;;6.90;99.90;;;;;;5040636;28;19967;-74
2024/01/06 06:05:16;;;;;;;;;;;7.00;99.90;;;;;;5052342;28;20376;-73
2024/01/06 06:07:45;;;;;;;;;;;7.00;99.90;;;;;;5047265;28;19921;-72
2024/01/06 06:10:15;;;;;;;;;;;7.10;99.90;;;;;;5049698;28;20034;-74
2024/01/06 06:12:44;;;;;;;;;;;7.00;99.90;;;;;;5073795;22;19924;-65
2024/01/06 06:15:12;;;;;;;;;;;6.90;99.90;;;;;;5033945;28;19925;-65
2024/01/06 06:17:40;;;;;;;;;;;6.80;99.90;;;;;;5045829;28;19928;-65
2024/01/06 06:20:09;;;;;;;;;;;6.70;99.90;;;;;;5034684;28;19971;-65
2024/01/06 06:22:36;;;;;;;;;;;6.80;99.90;;;;;;5025806;28;19925;-65
2024/01/06 06:25:06;;;;;;;;;;;6.60;99.90;;;;;;5032151;28;19921;-64
2024/01/06 06:27:35;;;;;;;;;;;6.50;99.90;;;;;;5024240;28;20009;-65
2024/01/06 06:30:03;;;;;;;;;;;6.40;99.90;;;;;;5031480;28;19920;-65
2024/01/06 06:32:31;;;;;;;;;;;6.50;99.90;;;;;;5032160;28;19921;-65
2024/01/06 06:34:59;;;;;;;;;;;6.50;99.90;;;;;;5031361;28;19971;-65
2024/01/06 06:37:27;;;;;;;;;;;6.50;99.90;;;;;;5038728;28;19931;-65
2024/01/06 06:39:55;;;;;;;;;;;6.40;99.90;;;;;;5031239;28;19943;-65
2024/01/06 06:42:26;;;;;;;;;;;6.50;99.90;;;;;;5041574;28;20273;-65
2024/01/06 06:44:54;;;;;;;;;;;6.40;99.90;;;;;;5037183;28;19921;-65
2024/01/06 06:47:21;;;;;;;;;;;6.60;99.90;;;;;;5031148;28;19921;-66
2024/01/06 06:49:49;;;;;;;;;;;6.70;99.90;;;;;;5031008;28;19928;-66
2024/01/06 06:52:17;;;;;;;;;;;6.80;99.90;;;;;;5014830;28;20860;-64
2024/01/06 06:54:45;;;;;;;;;;;6.90;99.90;;;;;;5031609;28;19921;-65
2024/01/06 06:57:13;;;;;;;;;;;6.60;99.90;;;;;;5030968;28;20323;-64
2024/01/06 06:59:43;;;;;;;;;;;6.30;99.90;;;;;;5034857;28;20463;-64
2024/01/06 07:02:11;;;;;;;;;;;6.20;99.90;;;;;;5050755;28;20218;-64
2024/01/06 07:04:38;;;;;;;;;;;6.20;99.90;;;;;;5023612;28;19921;-64
2024/01/06 07:07:06;;;;;;;;;;;5.90;99.90;;;;;;5031449;28;20348;-64
2024/01/06 07:09:34;;;;;;;;;;;5.80;99.90;;;;;;5050655;28;19927;-65
2024/01/06 07:12:02;;;;;;;;;;;5.90;99.90;;;;;;5050914;28;20009;-65
2024/01/06 07:14:30;;;;;;;;;;;6.20;99.90;;;;;;5050810;28;19924;-65
2024/01/06 07:16:59;;;;;;;;;;;6.30;99.90;;;;;;5025394;28;19927;-63
2024/01/06 07:19:27;;;;;;;;;;;6.40;99.90;;;;;;5039768;28;19921;-66
2024/01/06 07:21:55;;;;;;;;;;;6.10;99.90;;;;;;5038676;28;19948;-64
2024/01/06 07:24:23;;;;;;;;;;;6.00;99.90;;;;;;5041955;28;19921;-63
2024/01/06 07:26:51;;;;;;;;;;;5.70;99.90;;;;;;5031762;28;20003;-63
2024/01/06 07:29:19;;;;;;;;;;;5.80;99.90;;;;;;5030807;28;20410;-63
2024/01/06 07:31:47;;;;;;;;;;;6.00;99.90;;;;;;5015840;28;19921;-64
2024/01/06 07:34:17;;;;;;;;;;;6.20;99.90;;;;;;5034711;28;20429;-65
2024/01/06 07:36:45;;;;;;;;;;;6.40;99.90;;;;;;5015443;28;19982;-66
2024/01/06 07:39:13;;;;;;;;;;;6.70;99.90;;;;;;5033805;28;19986;-64
2024/01/06 07:41:40;;;;;;;;;;;6.80;99.90;;;;;;5030140;28;19928;-64
2024/01/06 07:44:09;;;;;;;;;;;6.90;99.90;;;;;;5031737;28;19928;-64
2024/01/06 07:46:37;;;;;;;;;;;7.10;99.90;;;;;;5035227;28;19924;-62
2024/01/06 07:49:05;;;;;;;;;;;7.20;99.90;;;;;;5034518;28;20378;-63
2024/01/06 07:51:35;;;;;;;;;;;7.30;99.90;;;;;;5041330;28;19928;-62
2024/01/06 07:54:05;;;;;;;;;;;7.40;99.90;;;;;;5028256;28;20457;-63
2024/01/06 07:56:33;;;;;;;;;;;7.50;99.90;;;;;;5022799;28;19936;-63
2024/01/06 07:59:00;;;;;;;;;;;7.60;99.90;;;;;;5023338;28;19929;-63
2024/01/06 08:01:28;;;;;;;;;;;7.60;99.90;;;;;;5022433;28;20339;-64
2024/01/06 08:03:56;;;;;;;;;;;7.70;99.90;;;;;;5020979;28;19929;-64
2024/01/06 08:06:25;;;;;;;;;;;7.70;99.90;;;;;;5022984;28;20384;-63
2024/01/06 08:08:54;;;;;;;;;;;7.70;99.90;;;;;;5022982;28;19928;-62
2024/01/06 08:11:22;;;;;;;;;;;7.70;99.90;;;;;;5021515;28;19936;-63
2024/01/06 08:13:50;;;;;;;;;;;7.70;99.90;;;;;;5020055;28;19936;-64
2024/01/06 08:16:19;;;;;;;;;;;7.70;99.90;;;;;;5022118;28;20499;-64
2024/01/06 08:18:47;;;;;;;;;;;7.80;99.90;;;;;;5022424;28;20308;-64
2024/01/06 08:21:15;;;;;;;;;;;7.60;99.90;;;;;;5021689;28;19933;-64
2024/01/06 08:23:42;;;;;;;;;;;7.70;99.90;;;;;;5019791;28;19925;-64
2024/01/06 08:26:12;;;;;;;;;;;7.70;99.90;;;;;;5021904;28;20422;-65
2024/01/06 08:28:40;;;;;;;;;;;7.70;99.90;;;;;;5021760;28;19925;-62
2024/01/06 08:31:08;;;;;;;;;;;7.70;99.90;;;;;;5004372;28;19929;-65
2024/01/06 08:33:36;;;;;;;;;;;7.70;99.90;;;;;;5021860;28;20386;-63
2024/01/06 08:36:04;;;;;;;;;;;7.70;99.90;;;;;;5022592;28;19925;-65
2024/01/06 08:38:32;;;;;;;;;;;7.70;99.90;;;;;;5022896;28;19937;-63
2024/01/06 08:41:00;;;;;;;;;;;7.70;99.90;;;;;;5005363;28;19936;-64
2024/01/06 08:43:29;;;;;;;;;;;7.80;99.90;;;;;;5020608;28;19932;-64
2024/01/06 08:45:57;;;;;;;;;;;7.80;99.90;;;;;;5022313;28;19928;-63
2024/01/06 08:48:25;;;;;;;;;;;7.90;99.90;;;;;;5021234;28;20336;-64
2024/01/06 08:50:53;;;;;;;;;;;7.90;99.90;;;;;;5020504;28;20773;-64
2024/01/06 08:53:21;;;;;;;;;;;7.70;99.90;;;;;;5019143;28;19936;-64
2024/01/06 08:55:49;;;;;;;;;;;7.60;99.90;;;;;;5021638;28;20390;-63
2024/01/06 08:58:17;;;;;;;;;;;7.70;99.90;;;;;;5021597;28;19925;-64
2024/01/06 09:00:47;;;;;;;;;;;7.80;99.90;;;;;;5020795;28;20033;-64
2024/01/06 09:03:15;;;;;;;;;;;7.80;99.90;;;;;;5018583;28;19932;-63
2024/01/06 09:05:43;;;;;;;;;;;7.70;99.90;;;;;;5021600;28;19925;-63
2024/01/06 09:08:11;;;;;;;;;;;7.60;99.90;;;;;;5021568;28;19925;-63
2024/01/06 09:10:39;;;;;;;;;;;7.60;99.90;;;;;;5021077;28;19936;-63
2024/01/06 09:13:07;;;;;;;;;;;7.60;99.90;;;;;;5001209;28;19936;-63
2024/01/06 09:15:35;;;;;;;;;;;7.80;99.90;;;;;;5021255;28;19929;-64
2024/01/06 09:18:05;;;;;;;;;;;7.80;99.90;;;;;;5021184;28;19929;-63
2024/01/06 09:20:33;;;;;;;;;;;7.60;99.90;;;;;;5020346;28;19936;-63
2024/01/06 09:23:01;;;;;;;;;;;7.50;99.90;;;;;;5001413;28;19929;-63
2024/01/06 09:25:29;;;;;;;;;;;7.50;99.90;;;;;;5020507;28;19929;-64
2024/01/06 09:27:58;;;;;;;;;;;7.30;99.90;;;;;;5021062;28;21292;-63
2024/01/06 09:30:27;;;;;;;;;;;7.00;99.90;;;;;;5020193;28;20691;-63
2024/01/06 09:32:55;;;;;;;;;;;6.80;99.90;;;;;;5020640;28;19929;-64
2024/01/06 09:35:24;;;;;;;;;;;6.80;99.90;;;;;;5020866;28;20001;-64
2024/01/06 09:37:52;;;;;;;;;;;6.80;99.90;;;;;;5021247;28;20380;-65
2024/01/06 09:40:22;;;;;;;;;;;6.80;99.90;;;;;;5020693;28;20419;-64
2024/01/06 09:42:49;;;;;;;;;;;6.70;99.90;;;;;;5020654;28;19929;-65
2024/01/06 09:45:17;;;;;;;;;;;6.60;99.90;;;;;;5020195;28;19931;-66
2024/01/06 09:47:49;;;;;;;;;;;6.50;99.90;;;;;;5021070;28;20308;-66
2024/01/06 09:50:19;;;;;;;;;;;6.50;99.90;;;;;;5020833;28;19935;-65
2024/01/06 09:52:53;;;;;;;;;;;6.40;99.90;;;;;;5020293;28;20019;-65
2024/01/06 09:55:24;;;;;;;;;;;6.40;99.90;;;;;;5021451;28;19936;-64
2024/01/06 09:57:52;;;;;;;;;;;6.40;99.90;;;;;;5021808;28;20019;-64
2024/01/06 10:00:20;;;;;;;;;;;6.40;99.90;;;;;;5021097;28;19929;-65
2024/01/06 10:02:48;;;;;;;;;;;6.30;99.90;;;;;;5021580;28;19959;-65
2024/01/06 10:05:16;;;;;;;;;;;6.50;99.90;;;;;;5020548;28;19941;-67
2024/01/06 10:07:45;;;;;;;;;;;6.40;99.90;;;;;;5021305;28;20346;-66
2024/01/06 10:10:14;;;;;;;;;;;6.50;99.90;;;;;;5020885;28;19979;-65
2024/01/06 10:12:43;;;;;;;;;;;6.50;99.90;;;;;;4998825;28;19972;-66
2024/01/06 10:15:11;;;;;;;;;;;6.50;99.90;;;;;;4997974;28;19959;-66
2024/01/06 10:17:40;;;;;;;;;;;6.50;99.90;;;;;;5000251;28;20020;-66
2024/01/06 10:20:09;;;;;;;;;;;6.60;99.90;;;;;;5000017;28;19933;-64
2024/01/06 10:22:37;;;;;;;;;;;6.60;99.90;;;;;;5000656;28;20023;-67
2024/01/06 10:25:07;;;;;;;;;;;6.60;99.90;;;;;;5000766;28;20493;-66
2024/01/06 10:27:36;;;;;;;;;;;6.60;99.90;;;;;;5001068;28;19925;-66
2024/01/06 10:30:05;;;;;;;;;;;6.70;99.90;;;;;;4999698;28;20021;-67
2024/01/06 10:32:33;;;;;;;;;;;6.80;99.90;;;;;;5000362;28;20014;-64
2024/01/06 10:35:03;;;;;;;;;;;6.90;99.90;;;;;;4998427;28;20345;-66
2024/01/06 10:37:31;;;;;;;;;;;6.80;99.90;;;;;;5000296;28;19936;-66
2024/01/06 10:40:08;;;;;;;;;;;6.80;99.90;;;;;;4999653;28;19932;-68
2024/01/06 10:42:39;;;;;;;;;;;6.90;99.90;;;;;;5000759;28;20035;-65
2024/01/06 10:45:08;;;;;;;;;;;6.90;99.90;;;;;;5000483;28;20632;-67
2024/01/06 10:47:36;;;;;;;;;;;6.90;99.90;;;;;;5001096;28;19929;-66
2024/01/06 10:50:05;;;;;;;;;;;7.00;99.90;;;;;;4999769;28;19957;-67
2024/01/06 10:52:33;;;;;;;;;;;7.00;99.90;;;;;;5000598;28;19929;-64
2024/01/06 10:55:02;;;;;;;;;;;7.10;99.90;;;;;;5001460;28;19977;-64
2024/01/06 10:57:31;;;;;;;;;;;7.20;99.90;;;;;;5000078;28;19952;-66
2024/01/06 11:00:01;;;;;;;;;;;7.30;99.90;;;;;;4997872;28;20703;-66
2024/01/06 11:02:30;;;;;;;;;;;7.30;99.90;;;;;;5000765;28;19951;-65
2024/01/06 11:04:57;;;;;;;;;;;7.30;99.90;;;;;;5000236;28;20629;-65
2024/01/06 11:07:26;;;;;;;;;;;7.40;99.90;;;;;;5000084;28;19930;-67
2024/01/06 11:09:56;;;;;;;;;;;7.40;99.90;;;;;;4999988;28;19940;-65
2024/01/06 11:12:26;;;;;;;;;;;7.40;99.90;;;;;;5005429;28;19933;-64
2024/01/06 11:14:54;;;;;;;;;;;7.50;99.90;;;;;;5020140;28;19925;-66
2024/01/06 11:17:41;;;;;;;;;;;7.60;99.90;;;;;;5020138;28;20312;-66
2024/01/06 11:20:14;;;;;;;;;;;7.60;99.90;;;;;;5019492;28;19982;-67
2024/01/06 11:22:42;;;;;;;;;;;7.50;99.90;;;;;;5019924;28;20136;-65
2024/01/06 11:25:15;;;;;;;;;;;7.50;99.90;;;;;;5020353;28;20471;-66
2024/01/06 11:27:44;;;;;;;;;;;7.50;99.90;;;;;;5020016;28;19929;-66
2024/01/06 11:30:20;;;;;;;;;;;7.60;99.90;;;;;;5019656;28;19931;-68
2024/01/06 11:32:48;;;;;;;;;;;7.60;99.90;;;;;;5019207;28;20026;-68
2024/01/06 11:35:18;;;;;;;;;;;7.60;99.90;;;;;;5019074;28;19929;-65
2024/01/06 11:37:52;;;;;;;;;;;7.50;99.90;;;;;;5018838;28;19936;-66
2024/01/06 11:40:24;;;;;;;;;;;7.50;99.90;;;;;;5000928;28;19948;-65
2024/01/06 11:42:59;;;;;;;;;;;7.60;99.90;;;;;;5019317;28;20463;-63
2024/01/06 11:45:27;;;;;;;;;;;7.50;99.90;;;;;;5019687;28;19932;-65
2024/01/06 11:47:56;;;;;;;;;;;7.50;99.90;;;;;;5020910;28;19928;-65
2024/01/06 11:50:26;;;;;;;;;;;7.40;99.90;;;;;;5044357;28;19922;-64
2024/01/06 11:52:54;;;;;;;;;;;7.40;99.90;;;;;;5045630;28;20364;-67
2024/01/06 11:55:22;;;;;;;;;;;7.50;99.90;;;;;;5029736;28;19927;-66
2024/01/06 11:57:50;;;;;;;;;;;7.50;99.90;;;;;;5042361;28;19925;-66
2024/01/06 12:00:19;;;;;;;;;;;7.60;99.90;;;;;;5043708;28;19943;-66
2024/01/06 12:02:47;;;;;;;;;;;7.60;99.90;;;;;;5046924;28;19920;-66
2024/01/06 12:05:15;;;;;;;;;;;7.70;99.90;;;;;;5038875;28;20307;-66
2024/01/06 12:07:53;;;;;;;;;;;7.70;99.90;;;;;;5031028;28;19925;-68
2024/01/06 12:10:21;;;;;;;;;;;7.70;99.90;;;;;;5025898;28;19921;-66
2024/01/06 12:12:56;;;;;;;;;;;7.70;99.90;;;;;;5042406;28;20103;-65
2024/01/06 12:15:24;;;;;;;;;;;7.80;99.90;;;;;;5049327;28;20379;-66
2024/01/06 12:17:52;;;;;;;;;;;8.00;99.90;;;;;;5043922;28;19921;-65
2024/01/06 12:20:20;;;;;;;;;;;8.00;99.90;;;;;;5032232;28;20012;-66
2024/01/06 12:22:49;;;;;;;;;;;8.20;99.90;;;;;;5050004;28;19924;-65
2024/01/06 12:25:17;;;;;;;;;;;8.20;99.90;;;;;;5050575;28;20104;-66
2024/01/06 12:27:44;;;;;;;;;;;8.20;99.90;;;;;;5050299;28;19921;-66
2024/01/06 12:30:18;;;;;;;;;;;8.20;99.90;;;;;;5049990;28;19969;-66
2024/01/06 12:32:48;;;;;;;;;;;8.30;99.90;;;;;;5041204;28;19952;-66
2024/01/06 12:35:17;;;;;;;;;;;8.40;99.90;;;;;;5049855;28;19920;-66
2024/01/06 12:37:46;;;;;;;;;;;8.40;99.90;;;;;;5050264;28;20397;-65
2024/01/06 12:40:16;;;;;;;;;;;8.40;99.90;;;;;;5052801;28;19924;-65
2024/01/06 12:42:45;;;;;;;;;;;8.30;99.90;;;;;;5053757;28;20298;-64
2024/01/06 12:45:15;;;;;;;;;;;8.20;99.90;;;;;;5053951;28;20003;-66
2024/01/06 12:47:43;;;;;;;;;;;8.20;99.90;;;;;;5045655;28;19929;-65
2024/01/06 12:50:12;;;;;;;;;;;8.20;99.90;;;;;;5053681;28;19921;-66
2024/01/06 12:52:40;;;;;;;;;;;8.20;99.90;;;;;;5053932;28;19920;-66
2024/01/06 12:55:08;;;;;;;;;;;8.20;99.90;;;;;;5053741;28;19956;-66
2024/01/06 12:57:37;;;;;;;;;;;8.10;99.90;;;;;;5046312;28;19924;-65
2024/01/06 13:00:08;;;;;;;;;;;8.20;99.90;;;;;;5045396;28;19921;-66
2024/01/06 13:02:36;;;;;;;;;;;8.20;99.90;;;;;;5053903;28;19978;-65
2024/01/06 13:05:05;;;;;;;;;;;8.20;99.90;;;;;;5041912;28;19936;-66
2024/01/06 13:07:33;;;;;;;;;;;8.30;99.90;;;;;;5040569;28;20019;-66
2024/01/06 13:10:01;;;;;;;;;;;8.20;99.90;;;;;;5053070;28;20026;-65
2024/01/06 13:12:30;;;;;;;;;;;8.30;99.90;;;;;;5031075;28;19925;-66
2024/01/06 13:15:00;;;;;;;;;;;8.30;99.90;;;;;;5051305;28;19925;-66
2024/01/06 13:17:28;;;;;;;;;;;8.30;99.90;;;;;;5053707;28;19935;-66
2024/01/06 13:19:57;;;;;;;;;;;8.20;99.90;;;;;;5052882;28;20429;-66
2024/01/06 13:22:26;;;;;;;;;;;8.10;99.90;;;;;;5053472;28;20015;-66
2024/01/06 13:24:53;;;;;;;;;;;8.00;99.90;;;;;;5053280;28;20003;-66
2024/01/06 13:27:21;;;;;;;;;;;7.90;99.90;;;;;;5053372;28;19921;-66
2024/01/06 13:29:49;;;;;;;;;;;7.80;99.90;;;;;;5046820;28;19931;-66
2024/01/06 13:32:19;;;;;;;;;;;7.70;99.90;;;;;;5053388;28;19921;-65
2024/01/06 13:34:47;;;;;;;;;;;7.70;99.90;;;;;;5033831;28;20402;-65
2024/01/06 13:37:15;;;;;;;;;;;7.70;99.90;;;;;;5029379;28;19993;-65
2024/01/06 13:39:43;;;;;;;;;;;7.60;99.90;;;;;;5034800;28;19928;-66
2024/01/06 13:42:11;;;;;;;;;;;7.50;99.90;;;;;;5052807;28;19924;-65
2024/01/06 13:44:39;;;;;;;;;;;7.50;99.90;;;;;;5050739;28;19927;-65
2024/01/06 13:47:07;;;;;;;;;;;7.40;99.90;;;;;;5052645;28;20326;-66
2024/01/06 13:49:36;;;;;;;;;;;7.30;99.90;;;;;;5052112;28;20022;-66
2024/01/06 13:52:04;;;;;;;;;;;7.20;99.90;;;;;;5033953;28;19930;-66
2024/01/06 13:54:32;;;;;;;;;;;7.20;99.90;;;;;;5052290;28;19927;-66
2024/01/06 13:57:00;;;;;;;;;;;7.10;99.90;;;;;;5052714;28;19921;-66
2024/01/06 13:59:28;;;;;;;;;;;7.10;99.90;;;;;;5049966;28;19927;-65
2024/01/06 14:01:56;;;;;;;;;;;7.10;99.90;;;;;;5052211;28;19971;-65
2024/01/06 14:04:24;;;;;;;;;;;7.10;99.90;;;;;;5046511;28;20031;-66
2024/01/06 14:06:55;;;;;;;;;;;7.00;99.90;;;;;;5040972;28;19925;-66
2024/01/06 14:09:24;;;;;;;;;;;7.00;99.90;;;;;;5042028;28;19931;-66
2024/01/06 14:11:54;;;;;;;;;;;7.00;99.90;;;;;;5051722;28;19920;-64
2024/01/06 14:14:22;;;;;;;;;;;6.90;99.90;;;;;;5047047;28;19917;-66
2024/01/06 14:16:50;;;;;;;;;;;6.80;99.90;;;;;;5048639;28;19951;-65
2024/01/06 14:19:18;;;;;;;;;;;6.80;99.90;;;;;;5036484;28;20011;-65
2024/01/06 14:21:46;;;;;;;;;;;6.80;99.90;;;;;;5051859;28;20364;-66
2024/01/06 14:24:18;;;;;;;;;;;6.80;99.90;;;;;;5046484;28;19920;-66
2024/01/06 14:26:46;;;;;;;;;;;6.70;99.90;;;;;;5052385;28;19947;-66
2024/01/06 14:29:16;;;;;;;;;;;6.70;99.90;;;;;;5051928;28;20007;-66
2024/01/06 14:31:44;;;;;;;;;;;6.70;99.90;;;;;;5051581;28;19970;-67
2024/01/06 14:34:12;;;;;;;;;;;6.60;99.90;;;;;;5046806;28;19947;-67
2024/01/06 14:36:47;;;;;;;;;;;6.60;99.90;;;;;;5032182;28;20372;-65
2024/01/06 14:39:16;;;;;;;;;;;6.50;99.90;;;;;;5044803;28;19921;-65